Time;durP1;ratioP1;P1;durP2;ratioP2;P2;SDS_P1;SDS_P2;PMS_P1;PMS_P2;Temp;Humidity;BMP_temperature;BMP_pressure;BME280_temperature;BME280_humidity;BME280_pressure;Samples;Min_cycle;Max_cycle;Signal;HPM_P1;HPM_P2
2023/10/29 00:00:18;;;;;;;;;1.00;1.00;;;;;21.65;53.55;99945.66;110182;1257;20689;-33
2023/10/29 00:03:06;;;;;;;;;2.00;2.00;;;;;21.65;53.47;99944.85;110141;1266;22189;-33
2023/10/29 00:05:34;;;;;;;;;2.00;2.00;;;;;21.64;53.45;99945.19;110140;1258;22491;-33
2023/10/29 00:08:01;;;;;;;;;2.00;2.00;;;;;21.65;53.33;99943.16;110163;1257;19376;-34
2023/10/29 00:10:29;;;;;;;;;1.00;1.00;;;;;21.65;53.46;99942.07;110153;1251;19567;-33
2023/10/29 00:12:56;;;;;;;;;3.00;3.00;;;;;21.63;53.62;99941.71;110127;1266;21253;-33
2023/10/29 00:15:23;;;;;;;;;2.00;2.00;;;;;21.65;53.62;99946.49;110141;1265;19367;-33
2023/10/29 00:17:51;;;;;;;;;2.00;2.00;;;;;21.63;53.51;99938.35;110150;1265;18571;-33
2023/10/29 00:20:18;;;;;;;;;3.00;3.00;;;;;21.64;53.67;99933.42;110136;1265;18821;-33
2023/10/29 00:22:46;;;;;;;;;2.00;2.00;;;;;21.64;53.50;99927.63;110125;1250;19211;-33
2023/10/29 00:25:13;;;;;;;;;2.00;2.00;;;;;21.63;53.66;99925.58;110130;1250;19690;-33
2023/10/29 00:27:41;;;;;;;;;4.00;2.00;;;;;21.62;53.59;99929.84;110125;1251;22203;-33
2023/10/29 00:30:08;;;;;;;;;2.00;2.00;;;;;21.61;53.43;99930.95;110134;1265;19527;-33
2023/10/29 00:32:35;;;;;;;;;2.00;2.00;;;;;21.61;53.67;99934.98;110156;1265;22271;-35
2023/10/29 00:35:03;;;;;;;;;2.00;2.00;;;;;21.63;53.58;99937.13;110167;1265;19488;-33
2023/10/29 00:37:30;;;;;;;;;1.00;1.00;;;;;21.63;53.47;99939.48;110125;1257;20684;-34
2023/10/29 00:39:58;;;;;;;;;2.00;2.00;;;;;21.61;53.68;99936.73;110159;1266;18335;-33
2023/10/29 00:42:25;;;;;;;;;2.00;2.00;;;;;21.61;53.55;99941.91;110131;1253;20269;-33
2023/10/29 00:44:52;;;;;;;;;1.00;1.00;;;;;21.61;53.62;99948.89;110155;1265;19352;-33
2023/10/29 00:47:20;;;;;;;;;2.00;2.00;;;;;21.61;53.55;99950.08;110158;1265;19621;-35
2023/10/29 00:49:48;;;;;;;;;2.00;2.00;;;;;21.62;53.37;99951.44;110044;1265;19370;-34
2023/10/29 00:52:16;;;;;;;;;2.00;2.00;;;;;21.60;53.37;99948.79;110119;1265;22357;-35
2023/10/29 00:54:43;;;;;;;;;2.00;2.00;;;;;21.60;53.57;99949.67;110109;1266;19592;-35
2023/10/29 00:57:11;;;;;;;;;2.00;2.00;;;;;21.59;53.41;99944.06;110022;1259;22170;-34
2023/10/29 00:59:38;;;;;;;;;2.00;2.00;;;;;21.60;53.49;99942.46;110080;1265;19384;-34
2023/10/29 01:02:05;;;;;;;;;1.00;1.00;;;;;21.60;53.40;99938.60;110125;1265;19504;-33
2023/10/29 01:04:33;;;;;;;;;2.00;2.00;;;;;21.61;53.26;99936.13;110152;1265;18639;-34
2023/10/29 01:07:00;;;;;;;;;2.00;2.00;;;;;21.59;53.19;99939.91;110042;1259;20642;-34
2023/10/29 01:09:28;;;;;;;;;2.00;2.00;;;;;21.58;53.57;99944.84;110089;1253;19967;-33
2023/10/29 01:11:55;;;;;;;;;2.00;2.00;;;;;21.58;53.22;99942.61;110116;1249;21288;-33
2023/10/29 01:14:23;;;;;;;;;1.00;1.00;;;;;21.56;53.34;99941.27;110102;1251;20885;-32
2023/10/29 01:16:50;;;;;;;;;2.00;2.00;;;;;21.57;53.29;99935.97;110125;1264;19646;-33
2023/10/29 01:19:18;;;;;;;;;2.00;2.00;;;;;21.56;53.40;99927.43;110166;1265;18835;-33
2023/10/29 01:21:45;;;;;;;;;2.00;2.00;;;;;21.56;53.33;99927.76;110119;1265;19549;-35
2023/10/29 01:24:13;;;;;;;;;4.00;2.00;;;;;21.57;53.34;99923.21;110129;1265;19857;-32
2023/10/29 01:26:40;;;;;;;;;1.67;1.00;;;;;21.56;53.29;99921.44;110150;1250;20072;-32
2023/10/29 01:29:08;;;;;;;;;2.00;2.00;;;;;21.56;53.24;99924.55;110166;1265;19378;-34
2023/10/29 01:31:35;;;;;;;;;1.50;1.50;;;;;21.55;53.48;99925.59;110113;1251;19627;-34
2023/10/29 01:34:03;;;;;;;;;1.00;1.00;;;;;21.57;53.13;99926.55;110130;1251;20095;-34
2023/10/29 01:36:30;;;;;;;;;2.00;2.00;;;;;21.56;53.18;99927.42;110137;1265;19274;-33
2023/10/29 01:38:57;;;;;;;;;1.50;1.50;;;;;21.57;53.20;99927.91;110164;1252;22672;-33
2023/10/29 01:41:25;;;;;;;;;2.00;2.00;;;;;21.55;53.12;99924.34;110148;1251;20054;-34
2023/10/29 01:43:53;;;;;;;;;2.00;2.00;;;;;21.57;53.12;99926.06;110174;1249;20928;-33
2023/10/29 01:46:20;;;;;;;;;4.00;2.00;;;;;21.56;53.05;99924.21;110140;1250;19607;-33
2023/10/29 01:48:47;;;;;;;;;2.00;2.00;;;;;21.55;53.23;99918.30;110159;1251;20076;-33
2023/10/29 01:51:15;;;;;;;;;1.50;1.50;;;;;21.55;53.26;99916.05;110124;1265;19346;-33
2023/10/29 01:53:42;;;;;;;;;2.00;2.00;;;;;21.56;53.12;99919.91;110120;1252;22400;-33
2023/10/29 01:56:10;;;;;;;;;2.00;2.00;;;;;21.56;53.27;99919.21;110162;1265;20008;-33
2023/10/29 01:58:37;;;;;;;;;2.00;2.00;;;;;21.55;53.03;99915.73;110139;1265;19400;-33
2023/10/29 02:01:05;;;;;;;;;2.00;2.00;;;;;21.55;53.03;99920.64;110118;1253;19639;-33
2023/10/29 02:03:32;;;;;;;;;4.00;2.00;;;;;21.55;52.98;99919.33;110125;1265;22042;-33
2023/10/29 02:05:59;;;;;;;;;2.00;1.33;;;;;21.55;53.07;99921.77;110123;1253;20834;-33
2023/10/29 02:08:27;;;;;;;;;2.00;2.00;;;;;21.55;52.98;99920.58;110140;1265;18563;-33
2023/10/29 02:10:54;;;;;;;;;2.00;2.00;;;;;21.55;53.25;99916.86;110141;1265;20139;-33
2023/10/29 02:13:22;;;;;;;;;1.00;1.00;;;;;21.56;52.96;99913.36;110121;1259;22998;-33
2023/10/29 02:15:49;;;;;;;;;1.00;1.00;;;;;21.54;52.86;99913.52;110128;1251;21692;-33
2023/10/29 02:18:17;;;;;;;;;2.00;2.00;;;;;21.55;53.03;99912.12;110147;1266;18600;-33
2023/10/29 02:20:45;;;;;;;;;1.00;1.00;;;;;21.54;52.94;99911.39;110136;1253;20752;-33
2023/10/29 02:23:12;;;;;;;;;2.00;2.00;;;;;21.53;53.26;99907.69;110128;1250;20795;-33
2023/10/29 02:25:39;;;;;;;;;2.00;2.00;;;;;21.55;52.92;99904.55;110137;1265;18635;-33
2023/10/29 02:28:07;;;;;;;;;2.00;2.00;;;;;21.55;53.00;99911.03;110138;1250;21046;-33
2023/10/29 02:30:35;;;;;;;;;2.00;2.00;;;;;21.55;52.79;99910.29;110091;1265;19846;-34
2023/10/29 02:33:02;;;;;;;;;1.00;1.00;;;;;21.54;52.99;99911.02;110160;1260;20122;-33
2023/10/29 02:35:30;;;;;;;;;4.00;2.00;;;;;21.54;53.13;99913.29;110133;1265;19369;-33
2023/10/29 02:37:57;;;;;;;;;2.00;2.00;;;;;21.53;53.13;99910.86;110154;1265;19431;-34
2023/10/29 02:40:25;;;;;;;;;1.00;1.00;;;;;21.52;52.89;99917.67;110137;1250;20257;-34
2023/10/29 02:42:52;;;;;;;;;1.00;1.00;;;;;21.53;52.79;99912.28;110138;1250;20802;-33
2023/10/29 02:45:20;;;;;;;;;2.00;2.00;;;;;21.52;53.01;99907.65;110129;1266;19545;-33
2023/10/29 02:47:47;;;;;;;;;2.00;2.00;;;;;21.53;52.99;99903.77;110123;1250;22068;-34
2023/10/29 02:50:14;;;;;;;;;2.00;2.00;;;;;21.53;52.95;99904.91;110124;1251;20735;-32
2023/10/29 02:52:42;;;;;;;;;2.00;2.00;;;;;21.53;52.90;99907.91;110109;1265;18528;-34
2023/10/29 02:55:09;;;;;;;;;2.00;2.00;;;;;21.55;52.83;99916.33;110146;1251;20097;-33
2023/10/29 02:57:37;;;;;;;;;2.00;2.00;;;;;21.54;52.93;99918.73;110119;1251;22183;-33
2023/10/29 03:00:06;;;;;;;;;1.00;1.00;;;;;21.53;52.71;99914.52;110146;1265;18367;-33
2023/10/29 03:02:33;;;;;;;;;1.50;1.50;;;;;21.52;52.91;99918.98;109993;1251;20120;-39
2023/10/29 03:05:00;;;;;;;;;1.00;1.00;;;;;21.51;52.86;99920.97;110157;1265;20713;-33
2023/10/29 03:07:28;;;;;;;;;3.00;3.00;;;;;21.51;52.96;99919.55;110146;1251;19682;-33
2023/10/29 03:09:55;;;;;;;;;1.00;1.00;;;;;21.52;53.05;99916.05;110166;1251;20110;-33
2023/10/29 03:12:23;;;;;;;;;2.00;2.00;;;;;21.53;52.86;99919.73;110136;1265;19826;-33
2023/10/29 03:14:50;;;;;;;;;2.00;2.00;;;;;21.52;52.72;99913.27;110139;1253;19670;-33
2023/10/29 03:17:17;;;;;;;;;2.00;2.00;;;;;21.51;52.87;99913.50;110006;1266;18519;-34
2023/10/29 03:19:45;;;;;;;;;2.00;2.00;;;;;21.53;52.65;99920.67;110095;1265;19381;-35
2023/10/29 03:22:13;;;;;;;;;1.50;1.50;;;;;21.51;52.60;99918.40;110148;1265;18552;-34
2023/10/29 03:24:40;;;;;;;;;2.00;2.00;;;;;21.50;52.92;99920.11;110166;1250;21451;-35
2023/10/29 03:27:08;;;;;;;;;2.00;1.00;;;;;21.51;52.68;99915.84;110119;1251;20821;-35
2023/10/29 03:29:35;;;;;;;;;2.00;2.00;;;;;21.53;52.59;99918.48;110149;1250;23017;-34
2023/10/29 03:32:03;;;;;;;;;1.00;1.00;;;;;21.53;52.68;99913.73;110137;1265;18864;-33
2023/10/29 03:34:31;;;;;;;;;2.00;1.33;;;;;21.51;52.83;99911.59;110153;1266;20737;-34
2023/10/29 03:36:58;;;;;;;;;2.00;2.00;;;;;21.53;52.66;99909.98;110192;1265;19587;-33
2023/10/29 03:39:26;;;;;;;;;1.00;1.00;;;;;21.52;52.52;99915.56;110176;1250;22105;-33
2023/10/29 03:41:53;;;;;;;;;1.00;1.00;;;;;21.54;52.54;99910.23;110142;1253;22283;-33
2023/10/29 03:44:21;;;;;;;;;2.00;2.00;;;;;21.51;52.82;99912.46;110150;1251;19560;-32
2023/10/29 03:46:48;;;;;;;;;1.00;1.00;;;;;21.53;52.61;99919.80;110150;1261;19021;-33
2023/10/29 03:49:16;;;;;;;;;2.00;2.00;;;;;21.51;52.53;99919.65;110111;1251;20859;-32
2023/10/29 03:51:44;;;;;;;;;2.00;2.00;;;;;21.50;52.71;99910.73;110182;1265;20395;-32
2023/10/29 03:54:11;;;;;;;;;2.00;2.00;;;;;21.51;52.79;99904.29;110106;1253;20079;-33
2023/10/29 03:56:39;;;;;;;;;4.00;2.00;;;;;21.49;52.74;99907.65;110131;1251;20886;-33
2023/10/29 03:59:06;;;;;;;;;2.00;2.00;;;;;21.48;52.80;99906.46;110141;1250;19581;-34
2023/10/29 04:01:34;;;;;;;;;1.00;1.00;;;;;21.50;52.64;99906.33;110161;1265;20049;-33
2023/10/29 04:04:01;;;;;;;;;4.00;3.00;;;;;21.49;52.57;99909.83;110158;1259;20597;-33
2023/10/29 04:06:29;;;;;;;;;4.00;4.00;;;;;21.48;52.45;99917.41;110155;1265;18385;-33
2023/10/29 04:08:56;;;;;;;;;2.00;2.00;;;;;21.50;52.65;99917.94;110151;1257;21765;-34
2023/10/29 04:11:24;;;;;;;;;4.00;2.00;;;;;21.51;52.51;99916.27;110145;1251;20974;-34
2023/10/29 04:13:51;;;;;;;;;1.00;1.00;;;;;21.51;52.41;99914.59;110132;1250;20867;-34
2023/10/29 04:16:18;;;;;;;;;1.00;1.00;;;;;21.51;52.39;99921.09;110148;1258;20040;-33
2023/10/29 04:18:46;;;;;;;;;2.00;1.00;;;;;21.50;52.66;99925.77;110134;1251;22797;-33
2023/10/29 04:21:13;;;;;;;;;1.00;1.00;;;;;21.53;52.67;99929.94;110165;1265;18409;-33
2023/10/29 04:23:41;;;;;;;;;2.00;2.00;;;;;21.51;52.61;99932.36;110176;1250;21511;-33
2023/10/29 04:26:08;;;;;;;;;2.00;2.00;;;;;21.49;52.60;99932.39;110149;1265;19333;-33
2023/10/29 04:28:36;;;;;;;;;1.67;1.00;;;;;21.50;52.48;99923.10;110124;1265;21825;-32
2023/10/29 04:31:03;;;;;;;;;2.00;2.00;;;;;21.51;52.44;99927.95;110154;1266;20237;-33
2023/10/29 04:33:31;;;;;;;;;2.00;2.00;;;;;21.50;52.56;99925.08;110129;1250;20954;-33
2023/10/29 04:35:58;;;;;;;;;2.00;2.00;;;;;21.53;52.53;99917.02;110103;1265;22855;-33
2023/10/29 04:38:26;;;;;;;;;2.00;2.00;;;;;21.50;52.40;99918.09;110141;1249;19102;-33
2023/10/29 04:40:53;;;;;;;;;1.33;1.33;;;;;21.52;52.32;99919.52;110147;1257;20904;-33
2023/10/29 04:43:21;;;;;;;;;1.33;1.33;;;;;21.50;52.37;99918.03;110122;1250;19648;-33
2023/10/29 04:45:48;;;;;;;;;1.00;1.00;;;;;21.51;52.35;99915.63;110152;1251;20039;-34
2023/10/29 04:48:17;;;;;;;;;1.00;1.00;;;;;21.50;52.50;99909.48;110121;1265;19405;-32
2023/10/29 04:50:44;;;;;;;;;2.00;2.00;;;;;21.48;52.30;99916.11;110132;1250;18312;-32
2023/10/29 04:53:12;;;;;;;;;2.00;2.00;;;;;21.48;52.63;99921.45;110171;1252;20864;-34
2023/10/29 04:55:39;;;;;;;;;1.00;1.00;;;;;21.50;52.50;99916.79;110088;1265;19353;-33
2023/10/29 04:58:06;;;;;;;;;2.00;2.00;;;;;21.50;52.56;99917.87;110083;1251;20663;-33
2023/10/29 05:00:34;;;;;;;;;2.00;1.50;;;;;21.50;52.44;99930.40;110108;1265;18725;-35
2023/10/29 05:03:01;;;;;;;;;1.00;1.00;;;;;21.50;52.33;99935.59;110064;1251;20845;-35
2023/10/29 05:05:30;;;;;;;;;2.00;2.00;;;;;21.50;52.14;99935.21;109631;1249;462744;-34
2023/10/29 05:07:58;;;;;;;;;2.00;1.00;;;;;21.47;52.63;99934.81;109995;1250;20084;-33
2023/10/29 05:10:28;;;;;;;;;1.50;1.50;;;;;21.46;52.50;99931.13;110013;1249;20855;-33
2023/10/29 05:12:56;;;;;;;;;2.00;2.00;;;;;21.49;52.51;99935.06;110088;1249;19649;-33
2023/10/29 05:15:24;;;;;;;;;2.00;2.00;;;;;21.46;52.60;99935.85;110133;1250;20036;-32
2023/10/29 05:17:52;;;;;;;;;2.00;2.00;;;;;21.48;52.37;99940.69;110145;1265;19284;-33
2023/10/29 05:20:19;;;;;;;;;1.00;1.00;;;;;21.47;52.71;99946.15;110154;1250;19550;-33
2023/10/29 05:22:47;;;;;;;;;2.00;2.00;;;;;21.47;52.47;99951.44;110100;1265;21744;-35
2023/10/29 05:25:14;;;;;;;;;2.00;2.00;;;;;21.50;52.16;99949.60;110155;1253;19538;-34
2023/10/29 05:27:42;;;;;;;;;1.67;1.00;;;;;21.46;52.49;99943.27;110167;1259;18420;-34
2023/10/29 05:30:09;;;;;;;;;2.00;2.00;;;;;21.47;52.31;99937.43;110147;1250;20038;-34
2023/10/29 05:32:37;;;;;;;;;4.00;2.00;;;;;21.47;52.31;99931.60;110161;1253;20839;-33
2023/10/29 05:35:05;;;;;;;;;2.00;2.00;;;;;21.49;52.40;99933.36;110106;1250;20833;-33
2023/10/29 05:37:33;;;;;;;;;2.00;2.00;;;;;21.48;52.33;99936.44;110004;1265;22674;-33
2023/10/29 05:40:00;;;;;;;;;2.00;2.00;;;;;21.48;52.48;99935.84;110099;1265;19474;-33
2023/10/29 05:42:27;;;;;;;;;2.00;2.00;;;;;21.46;52.52;99939.35;110133;1252;20176;-33
2023/10/29 05:44:55;;;;;;;;;2.00;2.00;;;;;21.48;52.48;99934.37;110141;1251;19979;-33
2023/10/29 05:47:22;;;;;;;;;2.00;2.00;;;;;21.46;52.30;99931.94;110179;1251;21634;-34
2023/10/29 05:49:50;;;;;;;;;2.00;2.00;;;;;21.46;52.42;99931.35;110127;1253;19642;-32
2023/10/29 05:52:17;;;;;;;;;2.00;1.00;;;;;21.45;52.49;99934.90;110155;1250;21021;-34
2023/10/29 05:54:45;;;;;;;;;2.00;2.00;;;;;21.48;52.39;99929.89;110145;1265;20794;-33
2023/10/29 05:57:12;;;;;;;;;2.00;1.00;;;;;21.47;52.52;99922.98;110160;1265;18435;-33
2023/10/29 05:59:40;;;;;;;;;1.00;1.00;;;;;21.48;52.19;99917.14;110148;1253;20015;-34
2023/10/29 06:02:08;;;;;;;;;2.00;2.00;;;;;21.47;52.33;99918.95;110108;1250;20828;-34
2023/10/29 06:04:35;;;;;;;;;1.00;1.00;;;;;21.47;52.36;99919.07;110116;1259;18431;-33
2023/10/29 06:07:03;;;;;;;;;2.00;2.00;;;;;21.48;52.34;99911.73;110122;1265;22168;-33
2023/10/29 06:09:30;;;;;;;;;2.00;1.00;;;;;21.45;52.50;99909.56;110116;1250;19354;-34
2023/10/29 06:11:58;;;;;;;;;2.00;2.00;;;;;21.44;52.24;99912.19;110140;1265;18436;-33
2023/10/29 06:14:25;;;;;;;;;3.00;2.00;;;;;21.46;52.23;99912.81;110128;1253;20044;-33
2023/10/29 06:16:56;;;;;;;;;4.00;2.00;;;;;21.49;52.15;99912.48;110124;1251;20763;-34
2023/10/29 06:19:24;;;;;;;;;7.00;2.00;;;;;21.50;52.40;99916.40;110117;1259;20702;-34
2023/10/29 06:21:51;;;;;;;;;2.00;2.00;;;;;21.52;52.68;99916.65;110165;1257;20032;-35
2023/10/29 06:24:19;;;;;;;;;2.00;2.00;;;;;21.54;52.83;99917.75;110107;1252;20828;-35
2023/10/29 06:26:46;;;;;;;;;2.00;2.00;;;;;21.56;52.77;99918.65;110123;1253;19646;-34
2023/10/29 06:29:14;;;;;;;;;2.00;2.00;;;;;21.58;52.91;99918.90;110137;1250;18868;-34
2023/10/29 06:31:41;;;;;;;;;4.50;4.00;;;;;21.59;52.95;99920.36;110103;1265;21897;-34
2023/10/29 06:34:09;;;;;;;;;4.00;4.00;;;;;21.61;52.83;99926.16;110085;1250;22393;-34
2023/10/29 06:36:38;;;;;;;;;4.00;2.00;;;;;21.54;53.26;99925.22;110120;1253;20263;-34
2023/10/29 06:39:06;;;;;;;;;5.00;5.00;;;;;21.51;53.51;99922.05;110061;1266;22477;-35
2023/10/29 06:41:33;;;;;;;;;3.00;2.00;;;;;21.52;53.21;99923.45;110112;1253;22805;-34
2023/10/29 06:44:02;;;;;;;;;4.00;3.33;;;;;21.56;53.26;99926.89;110131;1265;18651;-35
2023/10/29 06:46:30;;;;;;;;;2.00;2.00;;;;;21.48;53.56;99925.53;110125;1253;20791;-34
2023/10/29 06:48:58;;;;;;;;;8.00;4.50;;;;;21.49;53.47;99921.32;110106;1253;19632;-34
2023/10/29 06:51:25;;;;;;;;;4.00;2.00;;;;;21.57;53.45;99917.50;110033;1251;20118;-34
2023/10/29 06:53:53;;;;;;;;;4.00;4.00;;;;;21.57;53.52;99914.61;110104;1265;19386;-35
2023/10/29 06:56:20;;;;;;;;;5.00;5.00;;;;;21.58;53.28;99905.81;110064;1257;19528;-34
2023/10/29 06:58:48;;;;;;;;;5.67;5.00;;;;;21.59;53.18;99898.65;110108;1259;20043;-34
2023/10/29 07:01:15;;;;;;;;;5.00;4.00;;;;;21.62;53.08;99892.13;110115;1251;20772;-34
2023/10/29 07:03:43;;;;;;;;;4.00;4.00;;;;;21.60;53.14;99889.33;110079;1265;19837;-34
2023/10/29 07:06:11;;;;;;;;;4.00;4.00;;;;;21.58;53.36;99891.70;110143;1257;18812;-35
2023/10/29 07:08:39;;;;;;;;;4.00;4.00;;;;;21.59;53.33;99892.17;110162;1265;19535;-34
2023/10/29 07:11:06;;;;;;;;;4.00;4.00;;;;;21.62;53.51;99899.64;110118;1265;18379;-35
2023/10/29 07:13:34;;;;;;;;;2.00;2.00;;;;;21.69;53.21;99898.35;110110;1250;20123;-34
2023/10/29 07:16:02;;;;;;;;;4.00;4.00;;;;;21.69;53.32;99900.37;110125;1261;19561;-34
2023/10/29 07:18:30;;;;;;;;;5.00;4.00;;;;;21.63;53.68;99896.26;110181;1265;19095;-34
2023/10/29 07:20:58;;;;;;;;;3.00;3.00;;;;;21.61;53.85;99894.05;110117;1265;19961;-34
2023/10/29 07:23:26;;;;;;;;;4.00;4.00;;;;;21.57;53.73;99893.35;110143;1251;20776;-35
2023/10/29 07:25:53;;;;;;;;;5.00;4.50;;;;;21.61;53.89;99886.21;110109;1249;19561;-34
2023/10/29 07:28:21;;;;;;;;;4.00;4.00;;;;;21.60;54.21;99881.75;110105;1265;18695;-34
2023/10/29 07:30:49;;;;;;;;;4.00;4.00;;;;;21.61;54.38;99888.16;110139;1250;21970;-34
2023/10/29 07:33:16;;;;;;;;;4.00;2.00;;;;;21.63;54.57;99892.50;110114;1255;19628;-35
2023/10/29 07:35:45;;;;;;;;;4.00;4.00;;;;;21.63;54.55;99889.27;110129;1251;21481;-34
2023/10/29 07:38:12;;;;;;;;;2.00;2.00;;;;;21.62;54.43;99885.52;110156;1257;19368;-35
2023/10/29 07:40:40;;;;;;;;;7.00;5.00;;;;;21.59;54.87;99882.97;110123;1253;19648;-34
2023/10/29 07:43:07;;;;;;;;;5.00;4.00;;;;;21.67;53.81;99885.84;110129;1249;23406;-34
2023/10/29 07:45:34;;;;;;;;;4.00;4.00;;;;;21.66;54.22;99882.95;110099;1251;19663;-34
2023/10/29 07:48:02;;;;;;;;;6.00;5.00;;;;;21.69;53.96;99882.91;110101;1265;19586;-34
2023/10/29 07:50:29;;;;;;;;;4.00;4.00;;;;;21.68;54.23;99883.53;110048;1265;18663;-34
2023/10/29 07:52:57;;;;;;;;;5.00;4.00;;;;;21.65;54.24;99886.89;110099;1251;22229;-35
2023/10/29 07:55:24;;;;;;;;;4.00;4.00;;;;;21.67;54.15;99887.27;110065;1265;21651;-35
2023/10/29 07:57:52;;;;;;;;;4.00;4.00;;;;;21.68;54.46;99887.57;110050;1265;20171;-34
2023/10/29 08:00:19;;;;;;;;;5.00;5.00;;;;;21.71;54.46;99889.86;110089;1249;22209;-34
2023/10/29 08:02:47;;;;;;;;;4.50;4.00;;;;;21.75;54.47;99889.26;110117;1251;22920;-35
2023/10/29 08:05:15;;;;;;;;;5.00;5.00;;;;;21.80;54.10;99888.59;110131;1265;20049;-35
2023/10/29 08:07:42;;;;;;;;;3.00;3.00;;;;;21.79;54.22;99886.90;110179;1250;20807;-35
2023/10/29 08:10:10;;;;;;;;;4.00;4.00;;;;;21.76;54.13;99889.52;110103;1251;20867;-34
2023/10/29 08:12:37;;;;;;;;;4.00;4.00;;;;;21.75;54.46;99889.77;110138;1251;20166;-35
2023/10/29 08:15:05;;;;;;;;;5.00;2.00;;;;;21.76;54.95;99891.16;110138;1260;19383;-34
2023/10/29 08:17:32;;;;;;;;;7.00;5.00;;;;;21.66;55.83;99884.65;110119;1250;18602;-34
2023/10/29 08:20:00;;;;;;;;;2.00;2.00;;;;;21.68;56.19;99888.61;110122;1265;18749;-34
2023/10/29 08:22:27;;;;;;;;;2.00;2.00;;;;;21.72;56.15;99886.58;110127;1250;20979;-34
2023/10/29 08:24:55;;;;;;;;;2.67;2.00;;;;;21.67;56.50;99883.16;110115;1251;19623;-34
2023/10/29 08:27:23;;;;;;;;;7.00;7.00;;;;;21.67;56.14;99883.77;110178;1251;21444;-34
2023/10/29 08:29:50;;;;;;;;;4.00;4.00;;;;;21.67;55.94;99883.00;110118;1251;20838;-34
2023/10/29 08:32:18;;;;;;;;;4.00;4.00;;;;;21.66;56.26;99884.76;110120;1251;19662;-34
2023/10/29 08:34:46;;;;;;;;;4.00;4.00;;;;;21.70;55.94;99881.48;110124;1266;18932;-34
2023/10/29 08:37:13;;;;;;;;;4.00;4.00;;;;;21.65;56.06;99883.59;110118;1250;22708;-33
2023/10/29 08:39:41;;;;;;;;;5.67;4.00;;;;;21.65;56.04;99884.13;110109;1250;19686;-34
2023/10/29 08:42:09;;;;;;;;;5.00;5.00;;;;;21.70;55.76;99885.26;110138;1251;23012;-34
2023/10/29 08:44:36;;;;;;;;;3.50;3.00;;;;;21.70;56.02;99883.98;110095;1250;20973;-34
2023/10/29 08:47:04;;;;;;;;;5.00;4.00;;;;;21.67;55.76;99884.58;110031;1265;19969;-34
2023/10/29 08:49:31;;;;;;;;;4.00;4.00;;;;;21.72;55.84;99881.83;110095;1251;20187;-36
2023/10/29 08:51:58;;;;;;;;;4.00;4.00;;;;;21.68;56.13;99887.95;110103;1265;20898;-34
2023/10/29 08:54:26;;;;;;;;;4.00;3.33;;;;;21.71;55.62;99878.59;110110;1251;19939;-34
2023/10/29 08:56:53;;;;;;;;;2.00;2.00;;;;;21.76;55.70;99874.09;110112;1265;20174;-34
2023/10/29 08:59:21;;;;;;;;;4.00;4.00;;;;;21.79;55.64;99865.42;110130;1265;19655;-34
2023/10/29 09:01:48;;;;;;;;;4.00;4.00;;;;;21.75;55.96;99862.60;110085;1265;18715;-35
2023/10/29 09:04:16;;;;;;;;;4.00;4.00;;;;;21.71;55.82;99860.97;110099;1265;18652;-34
2023/10/29 09:06:44;;;;;;;;;5.00;4.00;;;;;21.74;55.75;99862.84;110112;1251;20927;-33
2023/10/29 09:09:12;;;;;;;;;2.00;2.00;;;;;21.69;55.54;99858.34;110168;1249;19613;-34
2023/10/29 09:11:43;;;;;;;;;2.00;2.00;;;;;21.69;55.79;99858.40;110151;1265;18649;-33
2023/10/29 09:14:11;;;;;;;;;7.00;5.00;;;;;21.73;55.62;99858.53;110123;1251;20810;-35
2023/10/29 09:16:38;;;;;;;;;4.00;4.00;;;;;21.76;55.56;99865.24;110117;1249;19562;-33
2023/10/29 09:19:06;;;;;;;;;5.00;4.00;;;;;21.72;55.58;99871.09;110091;1250;20111;-33
2023/10/29 09:21:33;;;;;;;;;5.00;4.00;;;;;21.74;55.95;99867.52;110132;1250;19475;-34
2023/10/29 09:24:01;;;;;;;;;7.00;5.00;;;;;21.73;56.13;99862.30;110114;1251;19617;-34
2023/10/29 09:26:28;;;;;;;;;2.00;2.00;;;;;21.76;56.00;99857.57;110097;1251;19976;-34
2023/10/29 09:28:56;;;;;;;;;4.00;3.00;;;;;21.73;56.17;99854.67;110103;1265;19374;-34
2023/10/29 09:31:23;;;;;;;;;4.00;4.00;;;;;21.74;56.03;99850.84;110091;1266;18680;-33
2023/10/29 09:33:51;;;;;;;;;4.00;4.00;;;;;21.74;56.31;99852.69;110086;1250;20226;-34
2023/10/29 09:36:19;;;;;;;;;4.00;4.00;;;;;21.74;56.65;99850.95;110107;1249;22222;-34
2023/10/29 09:38:46;;;;;;;;;4.00;4.00;;;;;21.75;56.85;99850.28;110086;1250;20654;-34
2023/10/29 09:41:14;;;;;;;;;2.00;2.00;;;;;21.79;56.54;99849.39;110080;1265;18662;-34
2023/10/29 09:43:42;;;;;;;;;2.00;2.00;;;;;21.78;56.45;99847.06;110075;1257;19368;-34
2023/10/29 09:46:09;;;;;;;;;4.00;4.00;;;;;21.75;56.58;99845.86;110200;1259;18410;-34
2023/10/29 09:48:36;;;;;;;;;1.00;1.00;;;;;21.75;56.48;99844.83;110111;1259;20102;-33
2023/10/29 09:51:04;;;;;;;;;5.00;4.00;;;;;21.79;56.01;99843.55;110059;1250;20689;-34
2023/10/29 09:53:31;;;;;;;;;4.67;4.00;;;;;21.84;55.87;99832.30;110113;1265;19536;-33
2023/10/29 09:55:59;;;;;;;;;7.00;5.00;;;;;21.81;56.18;99830.60;110093;1251;20057;-33
2023/10/29 09:58:27;;;;;;;;;4.00;4.00;;;;;21.79;56.37;99831.35;110103;1265;19480;-34
2023/10/29 10:00:56;;;;;;;;;2.00;2.00;;;;;21.75;56.51;99825.85;109859;1249;19608;-33
2023/10/29 10:03:24;;;;;;;;;4.00;4.00;;;;;21.78;56.01;99821.38;109792;1253;20111;-34
2023/10/29 10:05:52;;;;;;;;;104.50;75.00;;;;;21.83;55.67;99820.70;109804;1265;19349;-34
2023/10/29 10:08:19;;;;;;;;;385.00;264.00;;;;;21.82;55.66;99816.13;109815;1250;19557;-33
2023/10/29 10:10:48;;;;;;;;;386.00;264.00;;;;;21.75;55.15;99813.70;109742;1265;18916;-34
2023/10/29 10:13:16;;;;;;;;;387.00;266.00;;;;;21.52;54.04;99807.16;109774;1251;22662;-34
2023/10/29 10:15:44;;;;;;;;;361.00;247.50;;;;;21.55;53.00;99803.56;109766;1266;20332;-34
2023/10/29 10:18:12;;;;;;;;;344.67;250.67;;;;;21.53;53.04;99798.09;109827;1250;20233;-32
2023/10/29 10:20:39;;;;;;;;;335.00;249.00;;;;;21.57;53.08;99791.44;109796;1265;19509;-33
2023/10/29 10:23:07;;;;;;;;;319.00;227.50;;;;;21.63;53.14;99788.00;109834;1265;18914;-33
2023/10/29 10:25:35;;;;;;;;;260.00;196.00;;;;;21.71;53.03;99781.45;109814;1251;23202;-33
2023/10/29 10:28:03;;;;;;;;;276.00;203.00;;;;;21.73;53.18;99778.19;109772;1257;23345;-32
2023/10/29 10:30:30;;;;;;;;;219.00;148.50;;;;;21.72;53.33;99772.70;109781;1257;23464;-32
2023/10/29 10:32:58;;;;;;;;;221.00;158.00;;;;;21.76;53.71;99766.02;110062;1265;22617;-33
2023/10/29 10:35:26;;;;;;;;;189.00;134.00;;;;;21.75;53.91;99765.77;110130;1253;20810;-33
2023/10/29 10:37:54;;;;;;;;;154.00;115.00;;;;;21.76;54.01;99760.48;110110;1250;20336;-32
2023/10/29 10:40:21;;;;;;;;;134.00;103.00;;;;;21.78;53.72;99756.95;110061;1253;20164;-33
2023/10/29 10:42:49;;;;;;;;;150.00;108.00;;;;;21.79;53.87;99761.39;110058;1257;22240;-33
2023/10/29 10:45:20;;;;;;;;;124.00;92.00;;;;;21.80;54.19;99759.85;110016;1265;18948;-33
2023/10/29 10:47:47;;;;;;;;;110.00;80.00;;;;;21.84;54.29;99760.88;110093;1250;20489;-34
2023/10/29 10:50:15;;;;;;;;;107.00;75.00;;;;;21.83;54.22;99756.36;110038;1251;20851;-33
2023/10/29 10:52:42;;;;;;;;;90.00;65.00;;;;;21.80;54.51;99752.48;110109;1250;20219;-34
2023/10/29 10:55:10;;;;;;;;;87.00;61.50;;;;;21.73;54.99;99756.48;110141;1265;18765;-34
2023/10/29 10:57:37;;;;;;;;;87.00;62.50;;;;;21.73;54.73;99759.05;110142;1250;19326;-33
2023/10/29 11:00:05;;;;;;;;;77.00;57.00;;;;;21.82;54.61;99754.31;110138;1250;19962;-34
2023/10/29 11:02:33;;;;;;;;;77.50;55.50;;;;;21.79;54.98;99749.90;110166;1250;22423;-33
2023/10/29 11:05:00;;;;;;;;;65.00;50.00;;;;;21.79;54.92;99757.31;110148;1259;20755;-33
2023/10/29 11:07:28;;;;;;;;;69.00;50.00;;;;;21.84;54.70;99747.66;110156;1265;18525;-33
2023/10/29 11:09:55;;;;;;;;;63.00;46.00;;;;;21.85;54.97;99745.14;110120;1250;23524;-33
2023/10/29 11:12:23;;;;;;;;;57.00;45.00;;;;;21.84;54.57;99743.20;110135;1250;20805;-33
2023/10/29 11:14:50;;;;;;;;;45.50;41.00;;;;;21.83;54.91;99745.63;110138;1250;23451;-34
2023/10/29 11:17:18;;;;;;;;;55.00;39.50;;;;;21.78;55.01;99741.84;110150;1265;18733;-34
2023/10/29 11:19:46;;;;;;;;;53.00;40.00;;;;;21.74;55.23;99730.40;110114;1250;21213;-34
2023/10/29 11:22:14;;;;;;;;;45.00;39.00;;;;;21.76;55.22;99728.73;110102;1250;22242;-34